createdAt,value
2019-02-07T00:01:31.179Z,132.93
2019-02-07T00:04:08.387Z,141.68
2019-02-07T00:06:45.545Z,143.13
2019-02-07T00:09:23.624Z,140.15
2019-02-07T00:12:00.756Z,136.97
2019-02-07T00:14:39.735Z,138.65
2019-02-07T00:17:15.790Z,154.90
2019-02-07T00:19:52.775Z,148.30
2019-02-07T00:22:29.944Z,144.05
2019-02-07T00:25:07.288Z,132.40
2019-02-07T00:27:44.060Z,136.00
2019-02-07T00:30:21.615Z,149.50
2019-02-07T00:32:58.685Z,156.05
2019-02-07T00:35:35.342Z,149.75
2019-02-07T00:38:12.214Z,158.85
2019-02-07T00:40:49.077Z,153.27
2019-02-07T00:43:26.169Z,158.35
2019-02-07T00:46:03.280Z,153.65
2019-02-07T00:48:40.306Z,145.62
2019-02-07T00:51:17.125Z,144.95
2019-02-07T00:53:53.877Z,139.72
2019-02-07T00:56:30.594Z,138.57
2019-02-07T00:59:07.807Z,129.42
2019-02-07T01:01:44.334Z,129.60
2019-02-07T01:04:22.394Z,145.53
2019-02-07T01:06:59.340Z,130.47
2019-02-07T01:09:36.123Z,134.80
2019-02-07T01:12:12.902Z,139.37
2019-02-07T01:14:49.207Z,138.45
2019-02-07T01:17:26.280Z,160.03
2019-02-07T01:20:03.454Z,134.07
2019-02-07T01:22:41.158Z,132.75
2019-02-07T01:25:20.840Z,129.12
2019-02-07T01:27:57.964Z,141.65
2019-02-07T01:30:34.895Z,139.30
2019-02-07T01:33:11.591Z,141.47
2019-02-07T01:35:48.832Z,139.05
2019-02-07T01:38:25.802Z,130.75
2019-02-07T01:41:02.367Z,127.92
2019-02-07T01:43:39.590Z,123.10
2019-02-07T01:46:16.401Z,125.00
2019-02-07T01:48:53.384Z,130.25
2019-02-07T01:51:30.480Z,123.67
2019-02-07T01:54:07.714Z,119.80
2019-02-07T01:56:44.825Z,120.92
2019-02-07T01:59:21.540Z,124.02
2019-02-07T02:01:57.887Z,115.92
2019-02-07T02:04:35.044Z,124.10
2019-02-07T02:07:12.939Z,117.03
2019-02-07T02:09:50.324Z,114.95
2019-02-07T02:12:28.636Z,116.30
2019-02-07T02:15:06.445Z,115.67
2019-02-07T02:17:44.059Z,111.55
2019-02-07T02:20:21.057Z,116.37
2019-02-07T02:22:58.439Z,121.10
2019-02-07T02:25:35.342Z,119.00
2019-02-07T02:28:12.307Z,126.85
2019-02-07T02:30:49.127Z,118.40
2019-02-07T02:33:25.901Z,125.70
2019-02-07T02:36:02.556Z,119.37
2019-02-07T02:38:39.660Z,125.55
2019-02-07T02:41:17.165Z,127.02
2019-02-07T02:43:53.742Z,120.55
2019-02-07T02:46:30.637Z,127.47
2019-02-07T02:49:07.588Z,121.37
2019-02-07T02:51:45.655Z,121.97
2019-02-07T02:54:42.192Z,114.42
2019-02-07T02:57:19.502Z,118.08
2019-02-07T02:59:56.547Z,119.62
2019-02-07T03:02:50.161Z,105.90
2019-02-07T03:05:43.830Z,113.12
2019-02-07T03:08:39.038Z,118.00
2019-02-07T03:11:41.063Z,118.00
2019-02-07T03:14:36.179Z,122.62
2019-02-07T03:17:49.205Z,119.67
2019-02-07T03:20:48.224Z,122.42
2019-02-07T03:23:41.894Z,119.62
2019-02-07T03:26:29.977Z,108.97
2019-02-07T03:29:23.696Z,107.78
2019-02-07T03:32:16.869Z,115.70
2019-02-07T03:35:06.694Z,104.65
2019-02-07T03:37:55.292Z,99.87
2019-02-07T03:40:52.462Z,99.35
2019-02-07T03:43:57.186Z,118.72
2019-02-07T03:46:55.198Z,102.32
2019-02-07T03:49:48.885Z,113.72
2019-02-07T03:52:50.011Z,105.00
2019-02-07T03:55:54.403Z,111.03
2019-02-07T03:58:47.510Z,106.75
2019-02-07T04:01:40.938Z,104.40
2019-02-07T04:04:41.865Z,93.95
2019-02-07T04:07:43.221Z,109.22
2019-02-07T04:10:36.495Z,120.15
2019-02-07T04:13:31.738Z,101.53
2019-02-07T04:16:20.152Z,96.10
2019-02-07T04:19:21.846Z,105.12
2019-02-07T04:22:17.100Z,105.15
2019-02-07T04:25:14.988Z,100.82
2019-02-07T04:28:10.283Z,98.90
2019-02-07T04:31:11.242Z,109.60
2019-02-07T04:34:01.315Z,94.00
2019-02-07T04:36:59.029Z,99.72
2019-02-07T04:39:57.283Z,94.58
2019-02-07T04:42:52.129Z,93.70
2019-02-07T04:45:41.378Z,97.67
2019-02-07T04:48:45.476Z,106.67
2019-02-07T04:51:40.010Z,97.67
2019-02-07T04:54:29.224Z,92.95
2019-02-07T04:57:36.128Z,93.42
2019-02-07T05:00:27.044Z,86.63
2019-02-07T05:03:24.283Z,92.45
2019-02-07T05:06:12.568Z,94.60
2019-02-07T05:09:06.508Z,86.45
2019-02-07T05:12:01.930Z,92.40
2019-02-07T05:15:06.544Z,103.70
2019-02-07T05:18:04.011Z,86.60
2019-02-07T05:21:08.138Z,82.88
2019-02-07T05:24:06.352Z,85.30
2019-02-07T05:27:03.976Z,90.40
2019-02-07T05:30:01.958Z,81.53
2019-02-07T05:33:15.487Z,175.82
2019-02-07T05:36:11.410Z,89.58
2019-02-07T05:38:59.606Z,83.47
2019-02-07T05:41:53.466Z,89.95
2019-02-07T05:44:48.178Z,80.25
2019-02-07T05:47:43.025Z,85.45
2019-02-07T05:50:53.508Z,84.52
2019-02-07T05:53:51.058Z,82.53
2019-02-07T05:56:45.244Z,80.03
2019-02-07T05:59:38.140Z,79.20
2019-02-07T06:02:39.408Z,79.42
2019-02-07T06:05:30.816Z,78.10
2019-02-07T06:08:21.825Z,75.80
2019-02-07T06:11:34.117Z,75.65
2019-02-07T06:14:27.277Z,73.78
2019-02-07T06:17:20.941Z,69.58
2019-02-07T06:20:31.924Z,73.40
2019-02-07T06:23:34.388Z,69.90
2019-02-07T06:26:29.385Z,63.30
2019-02-07T06:29:35.956Z,54.77
2019-02-07T06:32:28.123Z,55.52
2019-02-07T06:35:24.045Z,54.55
2019-02-07T06:38:18.661Z,49.80
2019-02-07T06:41:17.308Z,50.25
2019-02-07T06:44:10.921Z,57.13
2019-02-07T06:47:13.570Z,49.27
2019-02-07T06:50:03.093Z,46.15
2019-02-07T06:52:46.055Z,53.30
2019-02-07T06:55:42.532Z,45.92
2019-02-07T06:58:37.310Z,52.55
2019-02-07T07:01:50.308Z,58.42
2019-02-07T07:04:43.073Z,62.45
2019-02-07T07:07:44.019Z,57.95
2019-02-07T07:10:54.089Z,59.03
2019-02-07T07:13:45.839Z,60.38
2019-02-07T07:16:59.077Z,51.92
2019-02-07T07:19:52.720Z,50.33
2019-02-07T07:22:54.168Z,43.33
2019-02-07T07:25:52.783Z,45.60
2019-02-07T07:28:41.452Z,43.68
2019-02-07T07:31:37.043Z,52.78
2019-02-07T07:34:30.710Z,47.70
2019-02-07T07:37:38.977Z,42.75
2019-02-07T07:40:39.971Z,52.80
2019-02-07T07:43:53.401Z,43.75
2019-02-07T07:46:58.434Z,47.10
2019-02-07T07:49:53.585Z,46.75
2019-02-07T07:52:51.418Z,54.08
2019-02-07T07:55:55.740Z,47.62
2019-02-07T07:58:48.910Z,50.90
2019-02-07T08:01:44.424Z,49.80
2019-02-07T08:04:45.457Z,46.33
2019-02-07T08:07:49.477Z,43.00
2019-02-07T08:10:47.457Z,43.50
2019-02-07T08:13:41.939Z,50.70
2019-02-07T08:16:37.010Z,46.08
2019-02-07T08:19:32.167Z,48.23
2019-02-07T08:22:25.940Z,52.62
2019-02-07T08:25:21.167Z,48.70
2019-02-07T08:28:11.826Z,51.55
2019-02-07T08:31:02.735Z,49.30
2019-02-07T08:33:55.337Z,48.68
2019-02-07T08:36:50.312Z,49.58
2019-02-07T08:39:50.699Z,44.25
2019-02-07T08:42:49.427Z,44.42
2019-02-07T08:46:03.057Z,45.92
2019-02-07T08:49:04.798Z,47.88
2019-02-07T08:51:58.201Z,48.83
2019-02-07T08:55:08.987Z,45.25
2019-02-07T08:58:01.539Z,47.95
2019-02-07T09:00:59.827Z,45.88
2019-02-07T09:04:00.637Z,50.30
2019-02-07T09:06:58.093Z,53.33
2019-02-07T09:09:41.741Z,44.90
2019-02-07T09:12:46.386Z,47.10
2019-02-07T09:15:30.636Z,45.08
2019-02-07T09:18:24.328Z,49.95
2019-02-07T09:21:16.933Z,48.95
2019-02-07T09:24:20.669Z,51.42
2019-02-07T09:27:17.163Z,47.83
2019-02-07T09:30:30.415Z,48.25
2019-02-07T09:33:20.071Z,50.43
2019-02-07T09:36:33.542Z,46.15
2019-02-07T09:39:29.191Z,48.42
2019-02-07T09:42:22.944Z,44.60
2019-02-07T09:45:22.938Z,51.55
2019-02-07T09:48:21.647Z,48.58
2019-02-07T09:51:12.135Z,48.28
2019-02-07T09:54:07.759Z,49.40
2019-02-07T09:56:54.321Z,49.73
2019-02-07T09:59:50.525Z,47.62
2019-02-07T10:02:45.194Z,50.10
2019-02-07T10:05:40.414Z,51.08
2019-02-07T10:08:28.867Z,49.90
2019-02-07T10:11:26.865Z,51.65
2019-02-07T10:14:15.230Z,59.30
2019-02-07T10:17:13.553Z,55.73
2019-02-07T10:20:11.847Z,50.92
2019-02-07T10:23:07.184Z,49.55
2019-02-07T10:26:14.248Z,60.17
2019-02-07T10:29:18.862Z,65.67
2019-02-07T10:32:12.551Z,72.92
2019-02-07T10:35:06.428Z,64.58
2019-02-07T10:37:55.237Z,66.90
2019-02-07T10:40:49.765Z,69.42
2019-02-07T10:43:38.865Z,69.50
2019-02-07T10:46:32.868Z,72.15
2019-02-07T10:49:26.386Z,81.87
2019-02-07T10:52:20.682Z,99.97
2019-02-07T10:55:14.357Z,75.30
2019-02-07T10:58:19.093Z,85.22
2019-02-07T11:01:12.383Z,96.97
2019-02-07T11:04:20.256Z,100.00
2019-02-07T11:07:15.151Z,90.42
2019-02-07T11:10:00.572Z,84.40
2019-02-07T11:12:57.889Z,80.03
2019-02-07T11:16:08.505Z,82.92
2019-02-07T11:19:04.495Z,88.33
2019-02-07T11:22:00.820Z,80.92
2019-02-07T11:24:54.196Z,100.05
2019-02-07T11:27:48.266Z,119.60
2019-02-07T11:30:43.007Z,105.05
2019-02-07T11:33:45.323Z,105.15
2019-02-07T11:36:54.189Z,123.05
2019-02-07T11:39:46.571Z,123.60
2019-02-07T11:42:44.688Z,112.05
2019-02-07T11:45:32.028Z,93.20
2019-02-07T11:48:45.784Z,105.37
2019-02-07T11:51:32.888Z,108.32
2019-02-07T11:54:39.463Z,124.35
2019-02-07T11:57:27.554Z,105.22
2019-02-07T12:00:40.554Z,122.87
2019-02-07T12:03:35.582Z,114.50
2019-02-07T12:06:29.621Z,109.92
2019-02-07T12:09:36.937Z,108.03
2019-02-07T12:12:51.980Z,115.40
2019-02-07T12:15:47.006Z,100.82
2019-02-07T12:18:42.933Z,122.47
2019-02-07T12:21:39.291Z,124.35
2019-02-07T12:24:37.859Z,119.45
2019-02-07T12:27:32.931Z,128.75
2019-02-07T12:30:55.693Z,130.82
2019-02-07T12:34:06.563Z,133.70
2019-02-07T12:37:07.922Z,139.00
2019-02-07T12:40:13.379Z,171.65
2019-02-07T12:43:06.643Z,138.43
2019-02-07T12:46:02.361Z,148.70
2019-02-07T12:48:51.481Z,129.70
2019-02-07T12:51:45.201Z,139.72
2019-02-07T12:54:38.356Z,132.40
2019-02-07T12:57:35.916Z,141.00
2019-02-07T13:00:31.251Z,135.70
2019-02-07T13:03:25.615Z,152.07
2019-02-07T13:06:19.017Z,152.02
2019-02-07T13:09:12.979Z,131.22
2019-02-07T13:12:09.279Z,147.68
2019-02-07T13:14:58.905Z,148.95
2019-02-07T13:17:54.213Z,135.72
2019-02-07T13:20:49.616Z,130.45
2019-02-07T13:23:43.441Z,141.10
2019-02-07T13:26:39.679Z,129.07
2019-02-07T13:29:43.635Z,126.78
2019-02-07T13:32:37.816Z,120.08
2019-02-07T13:35:28.688Z,137.92
2019-02-07T13:38:29.979Z,130.47
2019-02-07T13:41:24.670Z,120.08
2019-02-07T13:44:29.001Z,131.03
2019-02-07T13:47:29.680Z,142.10
2019-02-07T13:50:25.147Z,128.50
2019-02-07T13:53:20.054Z,127.70
2019-02-07T13:56:10.496Z,127.92
2019-02-07T13:59:06.300Z,122.13
2019-02-07T14:01:59.562Z,122.05
2019-02-07T14:04:52.694Z,120.90
2019-02-07T14:07:53.994Z,132.45
2019-02-07T14:10:48.039Z,114.15
2019-02-07T14:13:51.211Z,122.98
2019-02-07T14:16:38.360Z,118.82
2019-02-07T14:19:32.245Z,126.27
2019-02-07T14:22:33.062Z,121.72
2019-02-07T14:25:32.583Z,124.80
2019-02-07T14:28:25.635Z,130.15
2019-02-07T14:31:18.841Z,128.53
2019-02-07T14:34:13.803Z,130.45
2019-02-07T14:36:59.524Z,134.37
2019-02-07T14:39:55.421Z,145.60
2019-02-07T14:42:50.731Z,144.85
2019-02-07T14:45:51.549Z,144.68
2019-02-07T14:48:30.320Z,152.07
2019-02-07T14:51:07.497Z,156.50
2019-02-07T14:53:45.077Z,136.05
2019-02-07T14:56:22.890Z,134.43
2019-02-07T14:59:01.401Z,127.02
2019-02-07T15:01:39.525Z,136.55
2019-02-07T15:04:16.486Z,132.90
2019-02-07T15:06:55.441Z,138.10
2019-02-07T15:09:31.943Z,142.87
2019-02-07T15:12:09.177Z,151.00
2019-02-07T15:14:46.107Z,135.15
2019-02-07T15:17:22.445Z,137.00
2019-02-07T15:19:59.024Z,136.30
2019-02-07T15:22:36.791Z,133.05
2019-02-07T15:25:15.012Z,138.45
2019-02-07T15:27:53.537Z,143.68
2019-02-07T15:30:30.810Z,127.95
2019-02-07T15:33:08.289Z,134.03
2019-02-07T15:35:47.965Z,118.47
2019-02-07T15:38:24.856Z,124.95
2019-02-07T15:41:01.636Z,134.05
2019-02-07T15:43:38.481Z,120.62
2019-02-07T15:46:17.030Z,126.82
2019-02-07T15:48:54.221Z,133.90
2019-02-07T15:51:30.746Z,126.75
2019-02-07T15:54:07.408Z,131.40
2019-02-07T15:56:44.524Z,135.32
2019-02-07T15:59:29.344Z,126.45
2019-02-07T16:02:23.555Z,142.90
2019-02-07T16:05:00.740Z,121.50
2019-02-07T16:07:38.411Z,132.55
2019-02-07T16:10:18.307Z,133.18
2019-02-07T16:12:55.265Z,130.03
2019-02-07T16:15:32.572Z,135.88
2019-02-07T16:18:09.074Z,128.68
2019-02-07T16:20:49.004Z,134.12
2019-02-07T16:23:24.506Z,137.68
2019-02-07T16:26:01.663Z,132.95
2019-02-07T16:28:39.052Z,139.95
2019-02-07T16:31:15.891Z,132.72
2019-02-07T16:33:52.781Z,128.53
2019-02-07T16:36:29.508Z,132.67
2019-02-07T16:39:07.507Z,129.63
2019-02-07T16:41:44.679Z,133.52
2019-02-07T16:44:22.188Z,147.95
2019-02-07T16:46:59.977Z,137.40
2019-02-07T16:49:37.097Z,137.03
2019-02-07T16:52:13.603Z,129.38
2019-02-07T16:54:51.063Z,146.85
2019-02-07T16:57:27.406Z,131.10
2019-02-07T17:00:05.508Z,130.90
2019-02-07T17:02:42.127Z,135.72
2019-02-07T17:05:20.576Z,140.77
2019-02-07T17:07:57.216Z,130.63
2019-02-07T17:10:36.565Z,140.88
2019-02-07T17:13:14.149Z,134.22
2019-02-07T17:15:51.357Z,137.75
2019-02-07T17:18:28.070Z,140.70
2019-02-07T17:21:11.502Z,139.45
2019-02-07T17:23:42.915Z,138.35
2019-02-07T17:26:20.127Z,133.70
2019-02-07T17:28:56.861Z,142.05
2019-02-07T17:31:33.807Z,135.35
2019-02-07T17:34:10.538Z,134.18
2019-02-07T17:36:48.501Z,145.57
2019-02-07T17:39:25.183Z,141.20
2019-02-07T17:42:02.814Z,140.47
2019-02-07T17:44:39.561Z,145.07
2019-02-07T17:47:17.249Z,152.22
2019-02-07T17:49:54.141Z,142.37
2019-02-07T17:52:31.209Z,143.25
2019-02-07T17:55:08.732Z,152.00
2019-02-07T17:57:45.969Z,162.92
2019-02-07T18:00:31.505Z,154.38
2019-02-07T18:03:08.342Z,152.20
2019-02-07T18:05:45.078Z,149.93
2019-02-07T18:08:22.690Z,163.57
2019-02-07T18:10:59.820Z,160.25
2019-02-07T18:13:37.788Z,156.50
2019-02-07T18:16:15.055Z,143.35
2019-02-07T18:18:52.357Z,155.67
2019-02-07T18:21:34.346Z,147.05
2019-02-07T18:24:08.296Z,147.13
2019-02-07T18:26:45.707Z,147.25
2019-02-07T18:29:23.042Z,145.82
2019-02-07T18:32:00.009Z,141.22
2019-02-07T18:34:37.436Z,145.50
2019-02-07T18:37:14.129Z,150.32
2019-02-07T18:39:52.684Z,145.38
2019-02-07T18:42:28.819Z,142.53
2019-02-07T18:45:05.531Z,144.95
2019-02-07T18:47:42.416Z,151.35
2019-02-07T18:50:29.214Z,149.30
2019-02-07T18:53:05.918Z,161.50
2019-02-07T18:55:42.905Z,139.68
2019-02-07T18:58:19.279Z,149.93
2019-02-07T19:00:58.679Z,159.12
2019-02-07T19:03:38.718Z,167.00
2019-02-07T19:06:15.738Z,161.73
2019-02-07T19:08:53.291Z,156.82
2019-02-07T19:11:29.900Z,163.77
2019-02-07T19:14:06.884Z,175.60
2019-02-07T19:16:43.584Z,164.90
2019-02-07T19:19:20.443Z,160.57
2019-02-07T19:21:57.637Z,166.30
2019-02-07T19:24:34.772Z,162.27
2019-02-07T19:27:11.475Z,170.38
2019-02-07T19:29:48.227Z,177.43
2019-02-07T19:32:25.038Z,161.77
2019-02-07T19:35:02.744Z,188.78
2019-02-07T19:37:40.264Z,231.47
2019-02-07T19:40:18.226Z,207.22
2019-02-07T19:42:54.979Z,176.68
2019-02-07T19:45:33.074Z,167.43
2019-02-07T19:48:09.921Z,171.50
2019-02-07T19:50:46.689Z,184.35
2019-02-07T19:53:24.240Z,168.93
2019-02-07T19:56:01.141Z,183.27
2019-02-07T19:58:38.717Z,178.47
2019-02-07T20:01:15.311Z,163.95
2019-02-07T20:03:52.192Z,167.90
2019-02-07T20:06:28.968Z,166.85
2019-02-07T20:09:06.321Z,166.68
2019-02-07T20:11:43.982Z,170.57
2019-02-07T20:14:21.055Z,167.05
2019-02-07T20:16:57.840Z,178.25
2019-02-07T20:19:35.218Z,166.25
2019-02-07T20:22:19.876Z,171.85
2019-02-07T20:24:49.640Z,167.05
2019-02-07T20:27:26.982Z,175.42
2019-02-07T20:30:03.515Z,174.12
2019-02-07T20:32:40.885Z,174.55
2019-02-07T20:35:18.170Z,166.05
2019-02-07T20:37:56.359Z,173.93
2019-02-07T20:40:33.502Z,158.03
2019-02-07T20:43:11.176Z,152.10
2019-02-07T20:45:48.261Z,149.82
2019-02-07T20:48:24.957Z,157.85
2019-02-07T20:51:02.107Z,165.00
2019-02-07T20:53:39.314Z,163.92
2019-02-07T20:56:16.064Z,161.75
2019-02-07T20:58:53.721Z,153.50
2019-02-07T21:01:30.922Z,166.68
2019-02-07T21:04:08.204Z,153.82
2019-02-07T21:06:44.421Z,156.32
2019-02-07T21:09:21.454Z,160.67
2019-02-07T21:11:58.158Z,164.30
2019-02-07T21:14:35.554Z,163.30
2019-02-07T21:17:14.438Z,163.97
2019-02-07T21:19:50.980Z,164.60
2019-02-07T21:22:34.460Z,161.15
2019-02-07T21:25:06.664Z,164.77
2019-02-07T21:27:43.216Z,160.97
2019-02-07T21:30:25.591Z,166.88
2019-02-07T21:33:02.627Z,158.18
2019-02-07T21:35:39.270Z,159.63
2019-02-07T21:38:16.884Z,155.55
2019-02-07T21:40:53.501Z,165.07
2019-02-07T21:43:30.410Z,180.45
2019-02-07T21:46:07.330Z,180.03
2019-02-07T21:48:44.174Z,164.55
2019-02-07T21:51:20.704Z,170.77
2019-02-07T21:53:57.889Z,167.62
2019-02-07T21:56:34.982Z,161.88
2019-02-07T21:59:12.320Z,164.47
2019-02-07T22:01:50.080Z,165.55
2019-02-07T22:04:27.417Z,162.95
2019-02-07T22:07:05.250Z,160.20
2019-02-07T22:09:42.411Z,168.05
2019-02-07T22:12:19.038Z,176.93
2019-02-07T22:14:56.287Z,172.85
2019-02-07T22:17:33.211Z,174.55
2019-02-07T22:20:11.656Z,187.60
2019-02-07T22:22:49.410Z,186.97
2019-02-07T22:25:26.902Z,179.82
2019-02-07T22:28:03.457Z,173.95
2019-02-07T22:30:40.423Z,184.70
2019-02-07T22:33:17.552Z,188.25
2019-02-07T22:35:54.422Z,183.12
2019-02-07T22:38:31.045Z,180.65
2019-02-07T22:41:08.223Z,186.05
2019-02-07T22:43:45.126Z,184.15
2019-02-07T22:46:21.903Z,189.20
2019-02-07T22:48:58.799Z,195.43
2019-02-07T22:51:35.564Z,188.57
2019-02-07T22:54:13.032Z,196.20
2019-02-07T22:56:49.864Z,188.42
2019-02-07T22:59:26.930Z,186.07
2019-02-07T23:02:04.633Z,197.93
2019-02-07T23:04:42.099Z,187.05
2019-02-07T23:07:18.580Z,181.90
2019-02-07T23:09:55.381Z,187.37
2019-02-07T23:12:32.255Z,202.40
2019-02-07T23:15:09.848Z,213.18
2019-02-07T23:17:47.657Z,204.80
2019-02-07T23:20:25.020Z,205.32
2019-02-07T23:23:05.227Z,206.65
2019-02-07T23:25:39.924Z,212.97
2019-02-07T23:28:17.045Z,205.72
2019-02-07T23:30:53.922Z,208.23
2019-02-07T23:33:30.502Z,218.10
2019-02-07T23:36:07.971Z,208.80
2019-02-07T23:38:45.707Z,214.65
2019-02-07T23:41:23.320Z,202.03
2019-02-07T23:44:00.330Z,196.72
2019-02-07T23:46:37.066Z,211.57
2019-02-07T23:49:15.266Z,220.20
2019-02-07T23:51:52.283Z,205.60
2019-02-07T23:54:29.537Z,206.17
2019-02-07T23:57:06.639Z,207.67
2019-02-07T23:59:43.660Z,210.60
